Météo Nord-Pas-de-Calais   La météo au plus près de chez vous

Station météorologique

Observations météo à Pila-Canale (20232)

20232002 407 m Dernier relevé à 22:36
22.3°C
Humidité 88 % Vent 1.8 km/h

Journée consultée

Jeudi 3 Septembre 2026

Synthèse de la journée

Périodes de référence en UTC

Température maximale

31.6°C

à 15:00

06h 06h

Température minimale

19.8°C

à 05:00

18h 18h

Rafale maximale

27 km/h

à 14:12

00h 00h

Précipitations

0 mm

Cumul quotidien

06h 06h

Graphiques de la journée

Heure locale Réduire

Données détaillées

Relevés météo

Pas de 6 minutes Afficher les relevés infra-horaires
Relevés météo détaillés à Pila-Canale pour le Jeudi 3 Septembre 2026
Heure Température °C Point de rosée °C Humidité % Vent moyen (raf.), km/h Précipitations mm
22:36 22.3 °C 20.2 °C 88 % 0 km/h (3 km/h) 0 mm0 mm
22:30 22.3 °C 20 °C 87 % 0 km/h (3 km/h) 0 mm0 mm
22:24 22.4 °C 19.9 °C 86 % 0 km/h (4 km/h) 0 mm0 mm
22:18 22.5 °C 20 °C 86 % 2 km/h (4 km/h) 0 mm0 mm
22:12 22.5 °C 20 °C 86 % 0 km/h (3 km/h) 0 mm0 mm
22:06 22.5 °C 20.4 °C 88 % 0 km/h (4 km/h) 0 mm0 mm
22:00 22.4 °C 20.1 °C 87 % 2 km/h (5 km/h) 0 mm0 mm
21:54 22.5 °C 20.2 °C 87 % 4 km/h (8 km/h) 0 mm0 mm
21:48 22.5 °C 20.4 °C 88 % 5 km/h (8 km/h) 0 mm0 mm
21:42 22.5 °C 20.4 °C 88 % 3 km/h (7 km/h) 0 mm0 mm
21:36 22.6 °C 20.5 °C 88 % 2 km/h (5 km/h) 0 mm0 mm
21:30 22.7 °C 20.6 °C 88 % 3 km/h (5 km/h) 0 mm0 mm
21:24 22.8 °C 20.7 °C 88 % 0 km/h (4 km/h) 0 mm0 mm
21:18 22.9 °C 20.8 °C 88 % 0 km/h (3 km/h) 0 mm0 mm
21:12 23 °C 20.9 °C 88 % 2 km/h (4 km/h) 0 mm0 mm
21:06 23.1 °C 21 °C 88 % 2 km/h (3 km/h) 0 mm0 mm
21:00 23.2 °C 21.1 °C 88 % 3 km/h (5 km/h) 0 mm0 mm
20:54 23.3 °C 21.2 °C 88 % 4 km/h (5 km/h) 0 mm0 mm
20:48 23.4 °C 21.1 °C 87 % 4 km/h (5 km/h) 0 mm0 mm
20:42 23.5 °C 21.2 °C 87 % 3 km/h (5 km/h) 0 mm0 mm
20:36 23.5 °C 21 °C 86 % 3 km/h (7 km/h) 0 mm0 mm
20:30 23.6 °C 21.3 °C 87 % 4 km/h (7 km/h) 0 mm0 mm
20:24 23.6 °C 21.1 °C 86 % 3 km/h (5 km/h) 0 mm0 mm
20:18 23.7 °C 20.6 °C 83 % 2 km/h (4 km/h) 0 mm0 mm
20:12 23.8 °C 20.7 °C 83 % 3 km/h (6 km/h) 0 mm0 mm
20:06 24 °C 20.5 °C 81 % 4 km/h (7 km/h) 0 mm0 mm
20:00 24.2 °C 20.7 °C 81 % 2 km/h (5 km/h) 0 mm0 mm
19:54 24.3 °C 20.8 °C 81 % 2 km/h (5 km/h) 0 mm0 mm
19:48 24.6 °C 20.9 °C 80 % 2 km/h (5 km/h) 0 mm0 mm
19:42 24.9 °C 21 °C 79 % 2 km/h (5 km/h) 0 mm0 mm
19:36 25.1 °C 21 °C 78 % 2 km/h (5 km/h) 0 mm0 mm
19:30 25.5 °C 21.2 °C 77 % 2 km/h (5 km/h) 0 mm0 mm
19:24 25.9 °C 21.1 °C 75 % 4 km/h (10 km/h) 0 mm0 mm
19:18 26.2 °C 21.4 °C 75 % 5 km/h (10 km/h) 0 mm0 mm
19:12 26.5 °C 21.5 °C 74 % 5 km/h (12 km/h) 0 mm0 mm
19:06 26.7 °C 21.5 °C 73 % 8 km/h (15 km/h) 0 mm0 mm
19:00 26.9 °C 21.2 °C 71 % 8 km/h (16 km/h) 0 mm0 mm
18:54 27 °C 21.3 °C 71 % 8 km/h (16 km/h) 0 mm0 mm
18:48 27.2 °C 21.5 °C 71 % 8 km/h (15 km/h) 0 mm0 mm
18:42 27.3 °C 21.3 °C 70 % 7 km/h (13 km/h) 0 mm0 mm
18:36 27.5 °C 21.5 °C 70 % 8 km/h (15 km/h) 0 mm0 mm
18:30 27.7 °C 21.7 °C 70 % 9 km/h (17 km/h) 0 mm0 mm
18:24 27.8 °C 21.8 °C 70 % 10 km/h (19 km/h) 0 mm0 mm
18:18 27.7 °C 21.7 °C 70 % 11 km/h (22 km/h) 0 mm0 mm
18:12 27.9 °C 21.9 °C 70 % 10 km/h (17 km/h) 0 mm0 mm
18:06 28.3 °C 22.1 °C 69 % 10 km/h (18 km/h) 0 mm0 mm
18:00 28.5 °C 21.8 °C 67 % 11 km/h (18 km/h) 0 mm0 mm
17:54 28.6 °C 21.6 °C 66 % 10 km/h (17 km/h) 0 mm0 mm
17:48 28.9 °C 21.7 °C 65 % 9 km/h (17 km/h) 0 mm0 mm
17:42 29.1 °C 21.8 °C 65 % 8 km/h (14 km/h) 0 mm0 mm
17:36 29.1 °C 21.6 °C 64 % 8 km/h (14 km/h) 0 mm0 mm
17:30 29.3 °C 21.5 °C 63 % 10 km/h (18 km/h) 0 mm0 mm
17:24 29.6 °C 21.8 °C 63 % 10 km/h (19 km/h) 0 mm0 mm
17:18 29.5 °C 21.2 °C 61 % 10 km/h (19 km/h) 0 mm0 mm
17:12 29.6 °C 21 °C 60 % 9 km/h (15 km/h) 0 mm0 mm
17:06 29.7 °C 21.1 °C 60 % 10 km/h (16 km/h) 0 mm0 mm
17:00 29.5 °C 20.9 °C 60 % 10 km/h (16 km/h) 0 mm0 mm
16:54 29.5 °C 20.6 °C 59 % 11 km/h (18 km/h) 0 mm0 mm
16:48 29.8 °C 20.6 °C 58 % 12 km/h (25 km/h) 0 mm0 mm
16:42 30.2 °C 20.4 °C 56 % 10 km/h (25 km/h) 0 mm0 mm
16:36 30 °C 20.6 °C 57 % 11 km/h (22 km/h) 0 mm0 mm
16:30 30.1 °C 20.1 °C 55 % 11 km/h (22 km/h) 0 mm0 mm
16:24 30.3 °C 20 °C 54 % 11 km/h (19 km/h) 0 mm0 mm
16:18 30.1 °C 20.1 °C 55 % 12 km/h (22 km/h) 0 mm0 mm
16:12 30.5 °C 19.5 °C 52 % 12 km/h (19 km/h) 0 mm0 mm
16:06 30.4 °C 19.4 °C 52 % 12 km/h (26 km/h) 0 mm0 mm
16:00 30.5 °C 19.5 °C 52 % 12 km/h (26 km/h) 0 mm0 mm
15:54 31.2 °C 19.2 °C 49 % 9 km/h (19 km/h) 0 mm0 mm
15:48 31.1 °C 18.8 °C 48 % 10 km/h (19 km/h) 0 mm0 mm
15:42 30.6 °C 18.7 °C 49 % 12 km/h (20 km/h) 0 mm0 mm
15:36 30.8 °C 17.1 °C 44 % 10 km/h (18 km/h) 0 mm0 mm
15:30 31.1 °C 19.8 °C 51 % 10 km/h (18 km/h) 0 mm0 mm
15:24 31.1 °C 20.1 °C 52 % 12 km/h (20 km/h) 0 mm0 mm
15:18 30.6 °C 19.6 °C 52 % 14 km/h (26 km/h) 0 mm0 mm
15:12 30.7 °C 19.7 °C 52 % 14 km/h (26 km/h) 0 mm0 mm
15:06 30.9 °C 19.9 °C 52 % 13 km/h (26 km/h) 0 mm0 mm
15:00 30.8 °C 19.8 °C 52 % 14 km/h (26 km/h) 0 mm0 mm
14:54 31.1 °C 19.8 °C 51 % 12 km/h (24 km/h) 0 mm0 mm
14:48 31.4 °C 19.7 °C 50 % 10 km/h (24 km/h) 0 mm0 mm
14:42 31.1 °C 19.8 °C 51 % 11 km/h (23 km/h) 0 mm0 mm
14:36 30.9 °C 19.3 °C 50 % 10 km/h (19 km/h) 0 mm0 mm
14:30 30.9 °C 19.3 °C 50 % 9 km/h (18 km/h) 0 mm0 mm
14:24 31.1 °C 19.1 °C 49 % 12 km/h (20 km/h) 0 mm0 mm
14:18 31.3 °C 19 °C 48 % 14 km/h (27 km/h) 0 mm0 mm
14:12 31.5 °C 19.5 °C 49 % 12 km/h (27 km/h) 0 mm0 mm
14:06 31.5 °C 19.5 °C 49 % 9 km/h (20 km/h) 0 mm0 mm
14:00 31.3 °C 19.6 °C 50 % 11 km/h (23 km/h) 0 mm0 mm
13:54 31 °C 19.4 °C 50 % 13 km/h (19 km/h) 0 mm0 mm
13:48 31.1 °C 19.1 °C 49 % 8 km/h (19 km/h) 0 mm0 mm
13:42 31.1 °C 18.1 °C 46 % 8 km/h (18 km/h) 0 mm0 mm
13:36 30.8 °C 18.5 °C 48 % 11 km/h (21 km/h) 0 mm0 mm
13:30 30.6 °C 19 °C 50 % 13 km/h (21 km/h) 0 mm0 mm
13:24 30.8 °C 18.9 °C 49 % 11 km/h (21 km/h) 0 mm0 mm
13:18 30.4 °C 18.8 °C 50 % 10 km/h (22 km/h) 0 mm0 mm
13:12 30.5 °C 19.5 °C 52 % 13 km/h (26 km/h) 0 mm0 mm
13:06 31 °C 20 °C 52 % 11 km/h (26 km/h) 0 mm0 mm
13:00 31.1 °C 19.8 °C 51 % 11 km/h (23 km/h) 0 mm0 mm
12:54 30.8 °C 20.1 °C 53 % 13 km/h (26 km/h) 0 mm0 mm
12:48 30.4 °C 20 °C 54 % 13 km/h (26 km/h) 0 mm0 mm
12:42 30.2 °C 20.2 °C 55 % 13 km/h (27 km/h) 0 mm0 mm
12:36 30.1 °C 20.4 °C 56 % 13 km/h (27 km/h) 0 mm0 mm
12:30 30.2 °C 20.2 °C 55 % 14 km/h (23 km/h) 0 mm0 mm
12:24 29.8 °C 19.8 °C 55 % 13 km/h (26 km/h) 0 mm0 mm
12:18 30.4 °C 20 °C 54 % 12 km/h (22 km/h) 0 mm0 mm
12:12 29.9 °C 19.9 °C 55 % 14 km/h (22 km/h) 0 mm0 mm
12:06 30 °C 20.3 °C 56 % 12 km/h (22 km/h) 0 mm0 mm
12:00 29.7 °C 19.4 °C 54 % 13 km/h (20 km/h) 0 mm0 mm
11:54 29.9 °C 19.9 °C 55 % 13 km/h (20 km/h) 0 mm0 mm
11:48 30.1 °C 19.5 °C 53 % 12 km/h (18 km/h) 0 mm0 mm
11:42 30.3 °C 19.3 °C 52 % 9 km/h (18 km/h) 0 mm0 mm
11:36 29.7 °C 18.5 °C 51 % 8 km/h (17 km/h) 0 mm0 mm
11:30 29.6 °C 18.1 °C 50 % 7 km/h (16 km/h) 0 mm0 mm
11:24 29.3 °C 18.1 °C 51 % 8 km/h (19 km/h) 0 mm0 mm
11:18 29.4 °C 17.6 °C 49 % 7 km/h (14 km/h) 0 mm0 mm
11:12 29.4 °C 16.9 °C 47 % 5 km/h (10 km/h) 0 mm0 mm
11:06 29.4 °C 16.2 °C 45 % 4 km/h (9 km/h) 0 mm0 mm
11:00 29.4 °C 16.6 °C 46 % 4 km/h (8 km/h) 0 mm0 mm
10:54 28.9 °C 16.1 °C 46 % 3 km/h (8 km/h) 0 mm0 mm
10:48 28.8 °C 15.3 °C 44 % 2 km/h (8 km/h) 0 mm0 mm
10:42 28.3 °C 14.2 °C 42 % 3 km/h (8 km/h) 0 mm0 mm
10:36 27.9 °C 13 °C 40 % 3 km/h (6 km/h) 0 mm0 mm
10:30 27.5 °C 13.4 °C 42 % 4 km/h (8 km/h) 0 mm0 mm
10:24 27.5 °C 12.3 °C 39 % 4 km/h (9 km/h) 0 mm0 mm
10:18 27.6 °C 12.8 °C 40 % 4 km/h (9 km/h) 0 mm0 mm
10:12 27.1 °C 12.7 °C 41 % 5 km/h (10 km/h) 0 mm0 mm
10:06 26.9 °C 12.2 °C 40 % 7 km/h (12 km/h) 0 mm0 mm
10:00 26.8 °C 12.1 °C 40 % 7 km/h (12 km/h) 0 mm0 mm
09:54 27.1 °C 12.7 °C 41 % 4 km/h (12 km/h) 0 mm0 mm
09:48 27.1 °C 13.4 °C 43 % 2 km/h (6 km/h) 0 mm0 mm
09:42 26.7 °C 13.4 °C 44 % 3 km/h (7 km/h) 0 mm0 mm
09:36 26.5 °C 12.5 °C 42 % 3 km/h (8 km/h) 0 mm0 mm
09:30 26.2 °C 12.6 °C 43 % 3 km/h (6 km/h) 0 mm0 mm
09:24 25.7 °C 12.2 °C 43 % 3 km/h (7 km/h) 0 mm0 mm
09:18 25.7 °C 12.2 °C 43 % 4 km/h (7 km/h) 0 mm0 mm
09:12 25.5 °C 12 °C 43 % 3 km/h (6 km/h) 0 mm0 mm
09:06 25.5 °C 12 °C 43 % 2 km/h (4 km/h) 0 mm0 mm
09:00 26.1 °C 12.5 °C 43 % 2 km/h (5 km/h) 0 mm0 mm
08:54 26.3 °C 12 °C 41 % 3 km/h (5 km/h) 0 mm0 mm
08:48 26.6 °C 13.3 °C 44 % 3 km/h (5 km/h) 0 mm0 mm
08:42 26.6 °C 13.3 °C 44 % 3 km/h (5 km/h) 0 mm0 mm
08:36 26.1 °C 13.2 °C 45 % 3 km/h (6 km/h) 0 mm0 mm
08:30 25.7 °C 12.5 °C 44 % 4 km/h (6 km/h) 0 mm0 mm
08:24 25.1 °C 12.7 °C 46 % 4 km/h (5 km/h) 0 mm0 mm
08:18 25 °C 14.2 °C 51 % 3 km/h (5 km/h) 0 mm0 mm
08:12 24.7 °C 12.3 °C 46 % 0 km/h (4 km/h) 0 mm0 mm
08:06 24.5 °C 12.8 °C 48 % 0 km/h (4 km/h) 0 mm0 mm
08:00 23.6 °C 11.9 °C 48 % 2 km/h (4 km/h) 0 mm0 mm
07:54 23.1 °C 12.4 °C 51 % 3 km/h (6 km/h) 0 mm0 mm
07:48 22.7 °C 11.4 °C 49 % 4 km/h (8 km/h) 0 mm0 mm
07:42 22.3 °C 12 °C 52 % 4 km/h (10 km/h) 0 mm0 mm
07:36 21.6 °C 11 °C 51 % 3 km/h (10 km/h) 0 mm0 mm
07:30 21.3 °C 11 °C 52 % 3 km/h (8 km/h) 0 mm0 mm
07:24 21.3 °C 11.3 °C 53 % 2 km/h (6 km/h) 0 mm0 mm
07:18 20.9 °C 11.5 °C 55 % 0 km/h (3 km/h) 0 mm0 mm
07:12 20.9 °C 11.5 °C 55 % 0 km/h (3 km/h) 0 mm0 mm
07:06 20.8 °C 11.7 °C 56 % 2 km/h (5 km/h) 0 mm0 mm
07:00 20.8 °C 11.7 °C 56 % 2 km/h (5 km/h) 0 mm0 mm
06:54 20.7 °C 12.1 °C 58 % 2 km/h (5 km/h) 0 mm0 mm
06:48 20.7 °C 12.1 °C 58 % 2 km/h (5 km/h) 0 mm0 mm
06:42 20.6 °C 12.8 °C 61 % 0 km/h (4 km/h) 0 mm0 mm
06:36 20.6 °C 12.3 °C 59 % 0 km/h (4 km/h) 0 mm0 mm
06:30 20.4 °C 12.9 °C 62 % 0 km/h (4 km/h) 0 mm0 mm
06:24 20.5 °C 13.2 °C 63 % 2 km/h (5 km/h) 0 mm0 mm
06:18 20.6 °C 13.5 °C 64 % 0 km/h (5 km/h) 0 mm0 mm
06:12 20.7 °C 13.9 °C 65 % 0 km/h (3 km/h) 0 mm0 mm
06:06 20.4 °C 13.8 °C 66 % 3 km/h (6 km/h) 0 mm0 mm
06:00 20.3 °C 14 °C 67 % 4 km/h (6 km/h) 0 mm0 mm
05:54 20.4 °C 14.1 °C 67 % 3 km/h (5 km/h) 0 mm0 mm
05:48 20.4 °C 14.3 °C 68 % 0 km/h (4 km/h) 0 mm0 mm
05:42 20.4 °C 14.3 °C 68 % 2 km/h (5 km/h) 0 mm0 mm
05:36 20.4 °C 14.7 °C 70 % 4 km/h (6 km/h) 0 mm0 mm
05:30 20.3 °C 15.1 °C 72 % 5 km/h (6 km/h) 0 mm0 mm
05:24 20.1 °C 14.9 °C 72 % 4 km/h (6 km/h) 0 mm0 mm
05:18 20.1 °C 13.8 °C 67 % 2 km/h (4 km/h) 0 mm0 mm
05:12 19.9 °C 13.8 °C 68 % 0 km/h (3 km/h) 0 mm0 mm
05:06 19.9 °C 13.8 °C 68 % 0 km/h (3 km/h) 0 mm0 mm
05:00 19.8 °C 13.9 °C 69 % 0 km/h (3 km/h) 0 mm0 mm
04:54 19.9 °C 14.7 °C 72 % 0 km/h (4 km/h) 0 mm0 mm
04:48 19.9 °C 15.3 °C 75 % 0 km/h (0 km/h) 0 mm0 mm
04:42 20 °C 15.6 °C 76 % 0 km/h (2 km/h) 0 mm0 mm
04:36 20 °C 16 °C 78 % 0 km/h (3 km/h) 0 mm0 mm
04:30 20 °C 16 °C 78 % 0 km/h (3 km/h) 0 mm0 mm
04:24 20.1 °C 15.7 °C 76 % 0 km/h (4 km/h) 0 mm0 mm
04:18 20.1 °C 16.9 °C 82 % 2 km/h (3 km/h) 0 mm0 mm
04:12 20.1 °C 16.7 °C 81 % 3 km/h (4 km/h) 0 mm0 mm
04:06 20.1 °C 16.9 °C 82 % 3 km/h (5 km/h) 0 mm0 mm
04:00 20 °C 17.4 °C 85 % 4 km/h (6 km/h) 0 mm0 mm
03:54 19.9 °C 17.3 °C 85 % 3 km/h (6 km/h) 0 mm0 mm
03:48 20 °C 17.6 °C 86 % 2 km/h (5 km/h) 0 mm0 mm
03:42 19.9 °C 17.5 °C 86 % 2 km/h (5 km/h) 0 mm0 mm
03:36 20.2 °C 17.4 °C 84 % 2 km/h (6 km/h) 0 mm0 mm
03:30 20.4 °C 17.6 °C 84 % 3 km/h (6 km/h) 0 mm0 mm
03:24 20 °C 17.6 °C 86 % 3 km/h (6 km/h) 0 mm0 mm
03:18 20.2 °C 17.8 °C 86 % 3 km/h (6 km/h) 0 mm0 mm
03:12 20.2 °C 18.1 °C 88 % 2 km/h (4 km/h) 0 mm0 mm
03:06 20.3 °C 18.4 °C 89 % 0 km/h (3 km/h) 0 mm0 mm
03:00 20.4 °C 18.7 °C 90 % 0 km/h (3 km/h) 0 mm0 mm
02:54 20.2 °C 18.5 °C 90 % 0 km/h (3 km/h) 0 mm0 mm
02:48 20.3 °C 18.4 °C 89 % 0 km/h (0 km/h) 0 mm0 mm
02:42 20.2 °C 18.5 °C 90 % 0 km/h (2 km/h) 0 mm0 mm
02:36 20.3 °C 18.6 °C 90 % 0 km/h (2 km/h) 0 mm0 mm
02:30 20.2 °C 18.7 °C 91 % 0 km/h (3 km/h) 0 mm0 mm
02:24 20.1 °C 18.6 °C 91 % 0 km/h (3 km/h) 0 mm0 mm
02:18 20.2 °C 18.7 °C 91 % 0 km/h (3 km/h) 0 mm0 mm
02:12 20 °C 18.5 °C 91 % 0 km/h (3 km/h) 0 mm0 mm
02:06 20 °C 18.5 °C 91 % 0 km/h (3 km/h) 0 mm0 mm
02:00 20 °C 18.5 °C 91 % 0 km/h (2 km/h) 0 mm0 mm
01:54 20.1 °C 18.6 °C 91 % 0 km/h (3 km/h) 0 mm0 mm
01:48 20.1 °C 18.6 °C 91 % 0 km/h (3 km/h) 0 mm0 mm
01:42 20 °C 18.3 °C 90 % 0 km/h (3 km/h) 0 mm0 mm
01:36 20 °C 18.3 °C 90 % 0 km/h (3 km/h) 0 mm0 mm
01:30 20.1 °C 18.4 °C 90 % 2 km/h (4 km/h) 0 mm0 mm
01:24 20.2 °C 18.3 °C 89 % 0 km/h (3 km/h) 0 mm0 mm
01:18 20.3 °C 18.2 °C 88 % 0 km/h (3 km/h) 0 mm0 mm
01:12 20.4 °C 18.2 °C 87 % 0 km/h (3 km/h) 0 mm0 mm
01:06 20.5 °C 18.3 °C 87 % 2 km/h (4 km/h) 0 mm0 mm
01:00 20.3 °C 18.1 °C 87 % 2 km/h (4 km/h) 0 mm0 mm
00:54 20.2 °C 18 °C 87 % 2 km/h (4 km/h) 0 mm0 mm
00:48 20.2 °C 18 °C 87 % 4 km/h (5 km/h) 0 mm0 mm
00:42 20.1 °C 17.9 °C 87 % 3 km/h (5 km/h) 0 mm0 mm
00:36 20.3 °C 17.9 °C 86 % 0 km/h (3 km/h) 0 mm0 mm
00:30 20.3 °C 17.9 °C 86 % 0 km/h (3 km/h) 0 mm0 mm
00:24 20.4 °C 18 °C 86 % 3 km/h (4 km/h) 0 mm0 mm
00:18 20.6 °C 18.2 °C 86 % 2 km/h (4 km/h) 0 mm0 mm
00:12 20.6 °C 18.4 °C 87 % 0 km/h (2 km/h) 0 mm0 mm
00:06 20.6 °C 18.4 °C 87 % 0 km/h (2 km/h) 0 mm0 mm
00:00 20.7 °C 18.3 °C 86 % 0 km/h (3 km/h) 0 mm0 mm

Données via Météo-France

Relevés météo à Pila-Canale

Cette page rassemble les observations de la station de Pila-Canale : température, humidité, vent, précipitations et pression atmosphérique. Les graphiques facilitent le suivi de la journée, tandis que le tableau donne accès aux mesures horaires et infra-horaires disponibles.

Pour replacer ces mesures dans leur contexte, consultez la climatologie de Pila-Canale ainsi que ses normales et records. Retrouvez aussi la carte des observations météo en temps réel.